createdAt,value
2023-02-06T00:02:24.708Z,100295.59
2023-02-06T00:04:56.548Z,100289.69
2023-02-06T00:07:30.382Z,100293.19
2023-02-06T00:10:02.793Z,100293.47
2023-02-06T00:12:35.899Z,100297.97
2023-02-06T00:15:09.285Z,100290.75
2023-02-06T00:17:41.129Z,100294.19
2023-02-06T00:20:14.313Z,100289.88
2023-02-06T00:22:46.583Z,100285.38
2023-02-06T00:25:18.963Z,100288.78
2023-02-06T00:27:51.890Z,100293.88
2023-02-06T00:30:24.251Z,100293.75
2023-02-06T00:32:56.127Z,100296.72
2023-02-06T00:35:28.948Z,100296.78
2023-02-06T00:38:02.370Z,100299.22
2023-02-06T00:40:35.117Z,100284.47
2023-02-06T00:43:07.495Z,100288.78
2023-02-06T00:45:39.350Z,100288.97
2023-02-06T00:48:16.752Z,100286.66
2023-02-06T00:50:50.885Z,100286.28
2023-02-06T00:53:23.089Z,100287.47
2023-02-06T00:55:55.983Z,100277.09
2023-02-06T00:58:28.295Z,100277.56
2023-02-06T01:01:00.260Z,100281.16
2023-02-06T01:03:32.988Z,100279.88
2023-02-06T01:06:05.370Z,100279.75
2023-02-06T01:08:37.204Z,100278.69
2023-02-06T01:11:20.274Z,100276.59
2023-02-06T01:13:52.202Z,100281.38
2023-02-06T01:16:25.729Z,100280.06
2023-02-06T01:18:58.060Z,100280.44
2023-02-06T01:21:30.761Z,100285.91
2023-02-06T01:24:03.702Z,100284.84
2023-02-06T01:26:36.721Z,100274.22
2023-02-06T01:29:08.564Z,100279.88
2023-02-06T01:31:41.268Z,100284.59
2023-02-06T01:37:06.969Z,100288.03
2023-02-06T01:39:38.820Z,100292.50
2023-02-06T01:42:13.510Z,100291.84
2023-02-06T01:44:45.610Z,100305.25
2023-02-06T01:47:18.806Z,100302.31
2023-02-06T01:49:51.462Z,100297.25
2023-02-06T01:52:26.869Z,100301.75
2023-02-06T01:55:03.130Z,100296.53
2023-02-06T01:57:37.004Z,100286.28
2023-02-06T02:00:11.315Z,100287.16
2023-02-06T02:02:48.759Z,100282.50
2023-02-06T02:05:20.970Z,100287.47
2023-02-06T02:08:01.745Z,100285.03
2023-02-06T02:10:33.808Z,100285.50
2023-02-06T02:13:06.124Z,100277.69
2023-02-06T02:16:00.730Z,100274.53
2023-02-06T02:19:00.557Z,100272.47
2023-02-06T02:21:58.287Z,100271.81
2023-02-06T02:25:08.332Z,100262.03
2023-02-06T02:27:58.376Z,100255.97
2023-02-06T02:31:08.326Z,100259.28
2023-02-06T02:33:56.561Z,100259.16
2023-02-06T02:37:09.823Z,100255.03
2023-02-06T02:39:48.294Z,100254.09
2023-02-06T02:43:12.648Z,100251.81
2023-02-06T02:46:04.802Z,100251.69
2023-02-06T02:48:43.876Z,100251.25
2023-02-06T02:51:17.071Z,100255.63
2023-02-06T02:53:49.734Z,100250.31
2023-02-06T02:56:25.218Z,100250.19
2023-02-06T02:59:07.861Z,100256.66
2023-02-06T03:01:58.453Z,100248.97
2023-02-06T03:04:43.096Z,100258.72
2023-02-06T03:07:53.368Z,100253.50
2023-02-06T03:10:37.900Z,100258.97
2023-02-06T03:13:38.862Z,100250.75
2023-02-06T03:19:33.759Z,100248.84
2023-02-06T03:22:06.224Z,100255.69
2023-02-06T03:24:40.556Z,100257.19
2023-02-06T03:27:17.131Z,100262.28
2023-02-06T03:29:55.431Z,100252.00
2023-02-06T03:32:32.668Z,100257.88
2023-02-06T03:35:21.794Z,100263.50
2023-02-06T03:37:54.001Z,100259.25
2023-02-06T03:40:27.223Z,100253.31
2023-02-06T03:43:01.999Z,100266.31
2023-02-06T03:45:40.745Z,100259.72
2023-02-06T03:48:21.835Z,100264.22
2023-02-06T03:51:03.402Z,100270.09
2023-02-06T03:53:37.941Z,100265.28
2023-02-06T03:56:43.994Z,100260.72
2023-02-06T03:59:15.990Z,100267.06
2023-02-06T04:01:58.232Z,100262.69
2023-02-06T04:04:36.940Z,100270.91
2023-02-06T04:07:30.755Z,100262.88
2023-02-06T04:10:03.270Z,100266.19
2023-02-06T04:12:36.020Z,100262.53
2023-02-06T04:15:08.695Z,100258.97
2023-02-06T04:17:57.641Z,100259.38
2023-02-06T04:20:32.668Z,100264.19
2023-02-06T04:23:05.217Z,100262.66
2023-02-06T04:25:38.081Z,100262.81
2023-02-06T04:28:10.586Z,100249.13
2023-02-06T04:30:42.985Z,100255.69
2023-02-06T04:33:15.403Z,100260.50
2023-02-06T04:35:49.209Z,100255.13
2023-02-06T04:38:21.529Z,100261.88
2023-02-06T04:40:53.838Z,100263.50
2023-02-06T04:43:26.408Z,100251.63
2023-02-06T04:45:59.325Z,100255.00
2023-02-06T04:48:31.246Z,100253.34
2023-02-06T04:51:04.430Z,100260.75
2023-02-06T04:53:37.248Z,100254.44
2023-02-06T04:56:12.162Z,100260.63
2023-02-06T04:58:44.976Z,100256.88
2023-02-06T05:01:17.911Z,100253.75
2023-02-06T05:03:50.851Z,100262.34
2023-02-06T05:06:23.765Z,100247.63
2023-02-06T05:08:56.741Z,100245.84
2023-02-06T05:11:28.629Z,100254.75
2023-02-06T05:14:02.259Z,100259.69
2023-02-06T05:16:34.832Z,100259.84
2023-02-06T05:19:07.885Z,100262.81
2023-02-06T05:21:40.731Z,100264.47
2023-02-06T05:24:13.216Z,100256.38
2023-02-06T05:26:46.460Z,100261.72
2023-02-06T05:29:19.188Z,100262.25
2023-02-06T05:31:51.871Z,100259.50
2023-02-06T05:34:24.869Z,100261.16
2023-02-06T05:36:57.439Z,100264.94
2023-02-06T05:39:30.043Z,100263.56
2023-02-06T05:42:02.029Z,100258.00
2023-02-06T05:44:34.858Z,100257.16
2023-02-06T05:47:09.857Z,100255.25
2023-02-06T05:49:44.005Z,100248.97
2023-02-06T05:52:16.859Z,100258.22
2023-02-06T05:54:48.722Z,100259.84
2023-02-06T05:57:21.878Z,100255.97
2023-02-06T05:59:53.764Z,100268.59
2023-02-06T06:02:26.556Z,100262.53
2023-02-06T06:04:59.000Z,100259.41
2023-02-06T06:07:31.184Z,100258.03
2023-02-06T06:10:04.839Z,100266.66
2023-02-06T06:12:37.134Z,100268.44
2023-02-06T06:15:10.340Z,100259.94
2023-02-06T06:17:42.223Z,100265.16
2023-02-06T06:20:14.996Z,100269.69
2023-02-06T06:22:47.479Z,100265.56
2023-02-06T06:25:20.240Z,100262.81
2023-02-06T06:27:52.317Z,100262.81
2023-02-06T06:30:24.681Z,100263.25
2023-02-06T06:32:56.614Z,100271.31
2023-02-06T06:35:29.837Z,100278.28
2023-02-06T06:38:01.711Z,100278.03
2023-02-06T06:40:34.445Z,100274.06
2023-02-06T06:43:06.366Z,100272.72
2023-02-06T06:45:41.725Z,100278.63
2023-02-06T06:48:14.080Z,100275.78
2023-02-06T06:50:46.421Z,100277.72
2023-02-06T06:53:19.120Z,100281.88
2023-02-06T06:55:51.006Z,100267.84
2023-02-06T06:58:24.175Z,100262.94
2023-02-06T07:00:57.256Z,100268.56
2023-02-06T07:03:31.715Z,100270.06
2023-02-06T07:06:05.900Z,100277.59
2023-02-06T07:08:44.095Z,100275.00
2023-02-06T07:11:19.069Z,100277.06
2023-02-06T07:13:51.746Z,100292.13
2023-02-06T07:16:24.972Z,100288.28
2023-02-06T07:18:57.395Z,100293.38
2023-02-06T07:21:29.369Z,100305.44
2023-02-06T07:24:06.061Z,100302.56
2023-02-06T07:26:37.966Z,100288.44
2023-02-06T07:29:11.106Z,100280.38
2023-02-06T07:31:43.657Z,100288.03
2023-02-06T07:34:17.264Z,100289.25
2023-02-06T07:36:49.203Z,100289.13
2023-02-06T07:39:22.075Z,100283.38
2023-02-06T07:41:54.066Z,100282.28
2023-02-06T07:44:28.012Z,100272.56
2023-02-06T07:46:59.916Z,100271.03
2023-02-06T07:49:32.588Z,100262.13
2023-02-06T07:52:04.824Z,100254.31
2023-02-06T07:54:38.983Z,100268.03
2023-02-06T07:57:11.337Z,100280.91
2023-02-06T07:59:44.520Z,100295.41
2023-02-06T08:02:16.426Z,100296.91
2023-02-06T08:04:49.137Z,100285.28
2023-02-06T08:07:21.434Z,100282.53
2023-02-06T08:09:54.776Z,100286.78
2023-02-06T08:12:26.732Z,100287.22
2023-02-06T08:14:59.935Z,100289.94
2023-02-06T08:17:32.244Z,100278.44
2023-02-06T08:20:04.323Z,100279.38
2023-02-06T08:22:38.267Z,100274.03
2023-02-06T08:25:10.205Z,100269.38
2023-02-06T08:27:43.024Z,100276.13
2023-02-06T08:30:15.867Z,100278.56
2023-02-06T08:32:47.824Z,100271.44
2023-02-06T08:35:23.408Z,100269.09
2023-02-06T08:37:55.732Z,100274.44
2023-02-06T08:40:28.283Z,100271.84
2023-02-06T08:43:00.193Z,100266.22
2023-02-06T08:45:33.278Z,100273.72
2023-02-06T08:48:05.400Z,100273.09
2023-02-06T08:50:38.228Z,100266.03
2023-02-06T08:53:12.010Z,100263.31
2023-02-06T08:55:44.544Z,100260.44
2023-02-06T08:58:17.671Z,100257.56
2023-02-06T09:00:49.555Z,100260.28
2023-02-06T09:03:45.286Z,100254.47
2023-02-06T09:06:17.729Z,100253.88
2023-02-06T09:08:49.901Z,100246.69
2023-02-06T09:11:27.078Z,100246.44
2023-02-06T09:14:01.831Z,100245.72
2023-02-06T09:16:35.526Z,100254.06
2023-02-06T09:19:08.197Z,100267.19
2023-02-06T09:24:32.577Z,100274.75
2023-02-06T09:27:04.535Z,100270.38
2023-02-06T09:29:36.865Z,100265.47
2023-02-06T09:32:09.611Z,100258.66
2023-02-06T09:34:42.972Z,100243.84
2023-02-06T09:37:15.964Z,100246.41
2023-02-06T09:39:48.936Z,100238.59
2023-02-06T09:42:36.318Z,100253.28
2023-02-06T09:45:30.067Z,100256.31
2023-02-06T09:48:22.729Z,100261.09
2023-02-06T09:51:50.244Z,100255.00
2023-02-06T09:55:04.955Z,100258.22
2023-02-06T09:57:48.503Z,100259.41
2023-02-06T10:00:45.227Z,100253.06
2023-02-06T10:03:57.697Z,100260.72
2023-02-06T10:06:48.786Z,100270.16
2023-02-06T10:09:32.064Z,100257.47
2023-02-06T10:12:13.498Z,100271.38
2023-02-06T10:14:55.059Z,100253.75
2023-02-06T10:17:34.381Z,100242.81
2023-02-06T10:20:20.821Z,100237.63
2023-02-06T10:23:09.799Z,100230.31
2023-02-06T10:26:18.775Z,100222.22
2023-02-06T10:28:56.393Z,100212.03
2023-02-06T10:31:47.569Z,100231.97
2023-02-06T10:35:05.399Z,100219.72
2023-02-06T10:37:56.084Z,100207.94
2023-02-06T10:40:37.507Z,100204.38
2023-02-06T10:43:50.180Z,100195.44
2023-02-06T10:46:47.875Z,100186.44
2023-02-06T10:49:37.920Z,100179.94
2023-02-06T10:52:24.676Z,100182.19
2023-02-06T10:55:04.336Z,100160.69
2023-02-06T10:57:36.330Z,100161.22
2023-02-06T11:00:22.784Z,100165.44
2023-02-06T11:03:07.727Z,100153.91
2023-02-06T11:05:41.711Z,100150.22
2023-02-06T11:08:22.055Z,100153.28
2023-02-06T11:10:56.195Z,100153.25
2023-02-06T11:13:35.463Z,100162.28
2023-02-06T11:16:09.502Z,100162.63
2023-02-06T11:18:46.837Z,100160.78
2023-02-06T11:21:41.517Z,100156.31
2023-02-06T11:24:17.648Z,100144.78
2023-02-06T11:27:03.491Z,100150.97
2023-02-06T11:29:44.322Z,100138.50
2023-02-06T11:32:52.771Z,100150.66
2023-02-06T11:35:56.327Z,100131.41
2023-02-06T11:38:30.468Z,100128.19
2023-02-06T11:41:18.285Z,100145.38
2023-02-06T11:43:55.824Z,100138.88
2023-02-06T11:46:35.679Z,100133.53
2023-02-06T11:49:19.519Z,100129.91
2023-02-06T11:52:01.526Z,100122.84
2023-02-06T11:54:35.479Z,100111.72
2023-02-06T11:57:21.683Z,100116.91
2023-02-06T12:00:05.947Z,100111.69
2023-02-06T12:02:52.466Z,100119.63
2023-02-06T12:05:29.300Z,100113.28
2023-02-06T12:08:14.606Z,100099.63
2023-02-06T12:10:58.591Z,100102.38
2023-02-06T12:13:42.260Z,100099.97
2023-02-06T12:16:15.740Z,100101.53
2023-02-06T12:18:52.824Z,100097.13
2023-02-06T12:21:48.157Z,100093.41
2023-02-06T12:24:45.939Z,100099.38
2023-02-06T12:27:55.545Z,100097.84
2023-02-06T12:30:40.771Z,100093.28
2023-02-06T12:33:34.263Z,100094.00
2023-02-06T12:36:35.847Z,100088.59
2023-02-06T12:39:19.963Z,100083.81
2023-02-06T12:42:24.628Z,100085.75
2023-02-06T12:45:14.943Z,100084.16
2023-02-06T12:47:59.947Z,100074.75
2023-02-06T12:50:41.003Z,100073.41
2023-02-06T12:53:31.052Z,100066.91
2023-02-06T12:56:32.252Z,100068.22
2023-02-06T12:59:10.238Z,100063.16
2023-02-06T13:02:02.707Z,100058.09
2023-02-06T13:04:37.623Z,100062.06
2023-02-06T13:07:15.242Z,100068.41
2023-02-06T13:09:55.696Z,100051.97
2023-02-06T13:12:32.320Z,100047.63
2023-02-06T13:15:16.913Z,100066.63
2023-02-06T13:17:51.579Z,100060.13
2023-02-06T13:20:26.132Z,100058.09
2023-02-06T13:23:13.889Z,100061.38
2023-02-06T13:25:46.939Z,100062.34
2023-02-06T13:28:22.520Z,100071.00
2023-02-06T13:31:07.263Z,100067.69
2023-02-06T13:33:48.789Z,100056.84
2023-02-06T13:36:51.807Z,100043.84
2023-02-06T13:39:32.074Z,100045.88
2023-02-06T13:42:46.872Z,100039.06
2023-02-06T13:45:27.190Z,100042.38
2023-02-06T13:48:36.899Z,100053.41
2023-02-06T13:51:24.310Z,100039.16
2023-02-06T13:54:30.927Z,100047.81
2023-02-06T13:57:27.319Z,100048.59
2023-02-06T14:00:22.944Z,100053.63
2023-02-06T14:03:06.599Z,100047.81
2023-02-06T14:05:55.889Z,100054.94
2023-02-06T14:08:54.427Z,100060.69
2023-02-06T14:12:08.779Z,100066.66
2023-02-06T14:14:59.848Z,100068.63
2023-02-06T14:18:17.619Z,100070.91
2023-02-06T14:21:35.400Z,100064.31
2023-02-06T14:24:28.132Z,100054.31
2023-02-06T14:27:24.614Z,100061.41
2023-02-06T14:30:38.054Z,100055.06
2023-02-06T14:33:19.100Z,100057.66
2023-02-06T14:36:07.050Z,100053.28
2023-02-06T14:39:08.571Z,100048.22
2023-02-06T14:41:40.556Z,100049.16
2023-02-06T14:44:23.495Z,100060.16
2023-02-06T14:46:56.352Z,100056.47
2023-02-06T14:49:37.523Z,100054.56
2023-02-06T14:52:24.293Z,100061.31
2023-02-06T14:54:56.919Z,100068.34
2023-02-06T14:57:32.360Z,100062.81
2023-02-06T15:00:19.205Z,100068.06
2023-02-06T15:03:05.705Z,100072.16
2023-02-06T15:05:38.822Z,100084.44
2023-02-06T15:08:20.549Z,100079.22
2023-02-06T15:11:03.612Z,100075.22
2023-02-06T15:13:36.223Z,100071.84
2023-02-06T15:16:09.538Z,100092.28
2023-02-06T15:18:42.265Z,100093.44
2023-02-06T15:21:19.118Z,100088.22
2023-02-06T15:24:25.913Z,100088.09
2023-02-06T15:27:32.726Z,100094.00
2023-02-06T15:30:26.210Z,100088.19
2023-02-06T15:32:59.047Z,100088.06
2023-02-06T15:35:35.759Z,100087.28
2023-02-06T15:38:13.627Z,100093.97
2023-02-06T15:40:56.980Z,100090.91
2023-02-06T15:43:30.026Z,100097.81
2023-02-06T15:46:04.766Z,100099.25
2023-02-06T15:48:53.213Z,100101.56
2023-02-06T15:51:38.303Z,100095.28
2023-02-06T15:54:22.664Z,100089.91
2023-02-06T15:57:31.887Z,100095.75
2023-02-06T16:00:23.726Z,100093.91
2023-02-06T16:03:03.216Z,100085.31
2023-02-06T16:05:40.539Z,100087.00
2023-02-06T16:08:22.315Z,100080.84
2023-02-06T16:11:01.049Z,100085.50
2023-02-06T16:13:33.712Z,100071.06
2023-02-06T16:16:11.591Z,100074.03
2023-02-06T16:18:44.249Z,100076.03
2023-02-06T16:21:16.031Z,100087.00
2023-02-06T16:23:53.140Z,100087.06
2023-02-06T16:26:29.592Z,100088.50
2023-02-06T16:29:10.910Z,100086.81
2023-02-06T16:31:44.732Z,100098.81
2023-02-06T16:34:43.325Z,100089.88
2023-02-06T16:37:25.989Z,100101.13
2023-02-06T16:39:57.856Z,100104.50
2023-02-06T16:42:38.329Z,100108.78
2023-02-06T16:45:24.319Z,100104.44
2023-02-06T16:47:57.323Z,100119.84
2023-02-06T16:50:29.250Z,100125.50
2023-02-06T16:53:03.439Z,100135.03
2023-02-06T16:55:35.412Z,100145.03
2023-02-06T16:58:18.368Z,100148.28
2023-02-06T17:00:50.814Z,100149.72
2023-02-06T17:03:23.650Z,100154.84
2023-02-06T17:05:55.530Z,100146.59
2023-02-06T17:08:28.523Z,100158.44
2023-02-06T17:11:00.445Z,100153.69
2023-02-06T17:13:32.708Z,100155.78
2023-02-06T17:16:04.881Z,100168.97
2023-02-06T17:18:37.570Z,100172.25
2023-02-06T17:21:13.790Z,100162.31
2023-02-06T17:23:49.850Z,100159.56
2023-02-06T17:26:23.249Z,100164.50
2023-02-06T17:28:55.802Z,100168.56
2023-02-06T17:31:28.575Z,100167.88
2023-02-06T17:34:01.620Z,100166.63
2023-02-06T17:36:39.499Z,100164.03
2023-02-06T17:39:13.649Z,100158.97
2023-02-06T17:41:45.608Z,100145.38
2023-02-06T17:44:19.047Z,100146.88
2023-02-06T17:46:52.220Z,100146.34
2023-02-06T17:49:24.777Z,100151.28
2023-02-06T17:51:56.762Z,100144.84
2023-02-06T17:54:29.338Z,100138.25
2023-02-06T17:57:01.311Z,100134.97
2023-02-06T17:59:33.876Z,100149.22
2023-02-06T18:02:05.839Z,100130.59
2023-02-06T18:04:38.446Z,100133.88
2023-02-06T18:07:10.834Z,100141.69
2023-02-06T18:09:43.401Z,100146.38
2023-02-06T18:12:16.221Z,100142.00
2023-02-06T18:14:49.898Z,100148.84
2023-02-06T18:17:22.862Z,100135.25
2023-02-06T18:19:54.769Z,100125.53
2023-02-06T18:22:27.427Z,100109.91
2023-02-06T18:25:00.946Z,100102.91
2023-02-06T18:27:35.293Z,100109.22
2023-02-06T18:30:08.369Z,100093.53
2023-02-06T18:32:41.339Z,100096.81
2023-02-06T18:35:14.819Z,100094.25
2023-02-06T18:37:48.523Z,100088.81
2023-02-06T18:40:20.419Z,100074.16
2023-02-06T18:42:54.426Z,100073.72
2023-02-06T18:45:31.611Z,100071.28
2023-02-06T18:48:11.906Z,100084.72
2023-02-06T18:50:44.259Z,100091.03
2023-02-06T18:53:16.573Z,100083.06
2023-02-06T18:55:58.241Z,100089.44
2023-02-06T18:58:30.990Z,100087.44
2023-02-06T19:01:02.921Z,100081.00
2023-02-06T19:03:37.103Z,100068.81
2023-02-06T19:06:21.552Z,100064.88
2023-02-06T19:08:54.470Z,100052.81
2023-02-06T19:11:27.320Z,100046.66
2023-02-06T19:13:59.728Z,100035.69
2023-02-06T19:16:32.645Z,100035.84
2023-02-06T19:19:07.698Z,100036.66
2023-02-06T19:21:39.621Z,100033.81
2023-02-06T19:24:15.809Z,100029.00
2023-02-06T19:26:48.215Z,100012.56
2023-02-06T19:29:33.578Z,100017.50
2023-02-06T19:32:10.100Z,100019.41
2023-02-06T19:34:43.998Z,100017.75
2023-02-06T19:37:16.759Z,100014.72
2023-02-06T19:39:48.785Z,100013.38
2023-02-06T19:42:21.528Z,100001.59
2023-02-06T19:44:55.187Z,99996.22
2023-02-06T19:47:27.042Z,99995.81
2023-02-06T19:49:59.751Z,99996.00
2023-02-06T19:52:31.703Z,99993.00
2023-02-06T19:55:05.109Z,100001.13
2023-02-06T19:57:39.660Z,100004.91
2023-02-06T20:00:12.978Z,100005.66
2023-02-06T20:02:46.584Z,100004.69
2023-02-06T20:05:25.855Z,100003.06
2023-02-06T20:07:59.157Z,100006.91
2023-02-06T20:10:31.692Z,100000.53
2023-02-06T20:13:04.514Z,100003.88
2023-02-06T20:15:39.927Z,100004.44
2023-02-06T20:18:13.093Z,100006.47
2023-02-06T20:20:47.045Z,100009.06
2023-02-06T20:23:20.572Z,100016.91
2023-02-06T20:25:55.196Z,100014.97
2023-02-06T20:28:28.804Z,100005.25
2023-02-06T20:31:09.422Z,100004.97
2023-02-06T20:33:42.909Z,100001.84
2023-02-06T20:36:19.984Z,100000.09
2023-02-06T20:38:56.051Z,99994.47
2023-02-06T20:41:31.833Z,100001.03
2023-02-06T20:44:04.720Z,99979.41
2023-02-06T20:46:36.984Z,99986.13
2023-02-06T20:49:23.458Z,99994.94
2023-02-06T20:51:55.411Z,99999.84
2023-02-06T20:54:28.301Z,99991.06
2023-02-06T20:57:00.676Z,99988.31
2023-02-06T20:59:33.446Z,99985.72
2023-02-06T21:02:06.048Z,99984.47
2023-02-06T21:04:37.934Z,99987.53
2023-02-06T21:07:11.100Z,99985.63
2023-02-06T21:09:44.563Z,99986.31
2023-02-06T21:12:17.792Z,99986.44
2023-02-06T21:14:50.086Z,99989.59
2023-02-06T21:17:22.413Z,99981.38
2023-02-06T21:19:54.283Z,99974.69
2023-02-06T21:22:27.023Z,99972.50
2023-02-06T21:24:59.847Z,99966.59
2023-02-06T21:27:32.640Z,99964.53
2023-02-06T21:30:06.156Z,99962.50
2023-02-06T21:32:38.957Z,99962.63
2023-02-06T21:35:10.927Z,99974.09
2023-02-06T21:37:43.646Z,99956.59
2023-02-06T21:40:17.434Z,99954.84
2023-02-06T21:42:49.390Z,99949.38
2023-02-06T21:45:22.174Z,99937.47
2023-02-06T21:47:54.148Z,99942.53
2023-02-06T21:50:26.905Z,99948.69
2023-02-06T21:52:59.201Z,99941.84
2023-02-06T21:55:32.454Z,99930.50
2023-02-06T21:58:07.860Z,99925.81
2023-02-06T22:00:44.228Z,99945.78
2023-02-06T22:03:16.964Z,99940.47
2023-02-06T22:05:50.029Z,99933.09
2023-02-06T22:08:21.922Z,99921.72
2023-02-06T22:10:54.713Z,99913.53
2023-02-06T22:13:27.008Z,99908.19
2023-02-06T22:15:59.379Z,99916.66
2023-02-06T22:18:31.311Z,99913.38
2023-02-06T22:21:06.942Z,99914.75
2023-02-06T22:23:39.424Z,99916.13
2023-02-06T22:26:17.562Z,99931.19
2023-02-06T22:28:50.476Z,99928.03
2023-02-06T22:31:31.287Z,99938.00
2023-02-06T22:34:03.511Z,99920.50
2023-02-06T22:36:36.268Z,99907.22
2023-02-06T22:39:12.661Z,99894.22
2023-02-06T22:41:47.143Z,99896.94
2023-02-06T22:44:20.574Z,99900.50
2023-02-06T22:46:53.634Z,99895.31
2023-02-06T22:49:26.377Z,99895.59
2023-02-06T22:51:59.213Z,99887.66
2023-02-06T22:54:31.859Z,99884.91
2023-02-06T22:57:03.862Z,99882.31
2023-02-06T22:59:36.564Z,99886.84
2023-02-06T23:02:08.508Z,99880.00
2023-02-06T23:04:41.668Z,99879.47
2023-02-06T23:07:13.810Z,99889.44
2023-02-06T23:09:46.488Z,99891.63
2023-02-06T23:12:18.409Z,99896.00
2023-02-06T23:14:51.136Z,99877.00
2023-02-06T23:17:23.025Z,99876.56
2023-02-06T23:19:55.725Z,99867.41
2023-02-06T23:22:27.644Z,99863.31
2023-02-06T23:25:00.832Z,99859.72
2023-02-06T23:27:32.879Z,99864.25
2023-02-06T23:30:06.315Z,99855.91
2023-02-06T23:32:38.176Z,99861.75
2023-02-06T23:35:10.857Z,99859.19
2023-02-06T23:37:43.250Z,99864.78
2023-02-06T23:40:16.141Z,99866.56
2023-02-06T23:42:48.076Z,99856.31
2023-02-06T23:45:20.798Z,99859.97
2023-02-06T23:47:54.116Z,99855.56
2023-02-06T23:50:28.430Z,99863.50
2023-02-06T23:53:22.388Z,99863.41
2023-02-06T23:55:55.242Z,99864.53
2023-02-06T23:58:27.837Z,99866.84
